KCDR/CDR METAR and TAF weather

Enter ICAO airport designator
Station Type Date Time Source
KCDR METAR 2019/08/25 01:53 UTC NOAA

KCDR 250153Z AUTO 16010KT 10SM CLR 23/16 A2987 RMK AO2 SLP096 T02330156


Station Type Date Time Source
KCDR Decoded METAR 2019/08/25 01:53 UTC NOAA

Station name not available
Aug 24, 2019 - 09:53 PM EDT / 2019.08.25 0153 UTC
Wind: from the SSE (160 degrees) at 12 MPH (10 KT):0
Visibility: 10 mile(s):0
Sky conditions: clear
Temperature: 73.9 F (23.3 C)
Dew Point: 60.1 F (15.6 C)
Relative Humidity: 61%
Pressure (altimeter): 29.87 in. Hg (1011 hPa)
ob: KCDR 250153Z AUTO 16010KT 10SM CLR 23/16 A2987 RMK AO2 SLP096 T02330156
cycle: 2

Station Type Date Time Source
KCDR TAF 2019/08/24 18:24 UTC NOAA

TAF KCDR 241720Z 2418/2518 17012G18KT P6SM SCT250
FM250000 18012KT P6SM SCT040
FM251000 19007KT P6SM SCT250

Example: see airport list